Time;durP1;ratioP1;P1;durP2;ratioP2;P2;SDS_P1;SDS_P2;PMS_P1;PMS_P2;Temp;Humidity;BMP_temperature;BMP_pressure;BME280_temperature;BME280_humidity;BME280_pressure;Samples;Min_cycle;Max_cycle;Signal;HPM_P1;HPM_P2
2022/07/05 00:02:08;;;;;;;0.10;0.10;;;23.60;58.50;;;;;;5051846;28;20053;-26
2022/07/05 00:04:33;;;;;;;0.10;0.10;;;23.60;58.60;;;;;;5039224;28;20171;-25
2022/07/05 00:07:41;;;;;;;0.08;0.05;;;23.60;58.70;;;;;;5050460;28;20102;-25
2022/07/05 00:09:56;;;;;;;0.20;0.10;;;23.60;58.60;;;;;;5049134;28;20044;-28
2022/07/05 00:12:26;;;;;;;0.00;0.00;;;23.60;58.60;;;;;;5064621;28;20461;-28
2022/07/05 00:14:51;;;;;;;0.30;0.10;;;23.60;58.60;;;;;;5058962;28;20045;-26
2022/07/05 00:17:17;;;;;;;0.10;0.10;;;23.60;58.60;;;;;;5062534;28;20048;-23
2022/07/05 00:19:43;;;;;;;0.10;0.10;;;23.50;58.70;;;;;;5052534;28;20376;-26
2022/07/05 00:22:08;;;;;;;0.10;0.10;;;23.50;59.30;;;;;;5055313;28;20531;-25
2022/07/05 00:24:34;;;;;;;0.20;0.20;;;23.60;58.70;;;;;;5049270;28;20689;-30
2022/07/05 00:27:00;;;;;;;0.10;0.10;;;23.60;58.50;;;;;;5052171;28;20048;-26
2022/07/05 00:29:25;;;;;;;0.10;0.10;;;23.50;58.60;;;;;;5061686;28;20040;-26
2022/07/05 00:31:51;;;;;;;0.17;0.10;;;23.50;58.50;;;;;;5053733;28;21133;-26
2022/07/05 00:34:16;;;;;;;0.10;0.10;;;23.50;58.60;;;;;;5055379;28;20055;-26
2022/07/05 00:36:42;;;;;;;0.17;0.17;;;23.50;58.80;;;;;;5052967;28;20674;-23
2022/07/05 00:39:08;;;;;;;0.28;0.20;;;23.50;58.80;;;;;;5051162;28;20051;-30
2022/07/05 00:41:33;;;;;;;0.00;0.00;;;23.50;58.60;;;;;;5057381;28;20044;-27
2022/07/05 00:44:01;;;;;;;0.05;0.05;;;23.50;59.40;;;;;;5051571;28;20053;-31
2022/07/05 00:46:26;;;;;;;0.15;0.08;;;23.50;58.70;;;;;;5055375;28;20117;-24
2022/07/05 00:48:52;;;;;;;0.00;0.00;;;23.50;58.80;;;;;;5054303;28;21932;-24
2022/07/05 00:51:18;;;;;;;0.15;0.15;;;23.50;58.70;;;;;;5067916;28;20048;-26
2022/07/05 00:53:43;;;;;;;0.25;0.03;;;23.50;58.70;;;;;;5047071;28;20036;-25
2022/07/05 00:56:10;;;;;;;0.13;0.00;;;23.50;58.90;;;;;;5066104;28;20052;-23
2022/07/05 00:58:36;;;;;;;0.05;0.05;;;23.50;58.90;;;;;;5061984;28;20041;-22
2022/07/05 01:01:02;;;;;;;0.10;0.10;;;23.50;58.90;;;;;;5054091;28;20060;-25
2022/07/05 01:03:28;;;;;;;0.20;0.20;;;23.40;58.90;;;;;;5052655;28;20056;-25
2022/07/05 01:05:54;;;;;;;0.00;0.00;;;23.40;58.90;;;;;;5049012;28;20185;-27
2022/07/05 01:08:20;;;;;;;0.52;0.10;;;23.40;58.90;;;;;;5072314;28;20401;-28
2022/07/05 01:10:45;;;;;;;0.10;0.10;;;23.40;58.90;;;;;;5061583;28;20056;-24
2022/07/05 01:13:11;;;;;;;0.13;0.10;;;23.40;59.50;;;;;;5058551;28;20040;-28
2022/07/05 01:15:36;;;;;;;0.15;0.10;;;23.40;58.80;;;;;;5058893;28;20041;-28
2022/07/05 01:18:02;;;;;;;0.10;0.10;;;23.50;59.10;;;;;;5063150;28;20134;-24
2022/07/05 01:20:27;;;;;;;0.00;0.00;;;23.40;58.90;;;;;;5049453;28;20128;-25
2022/07/05 01:22:56;;;;;;;0.10;0.10;;;23.40;59.00;;;;;;5038963;28;20044;-25
2022/07/05 01:25:23;;;;;;;0.70;0.10;;;23.40;59.00;;;;;;5033101;28;20494;-26
2022/07/05 01:27:49;;;;;;;0.10;0.10;;;23.40;58.90;;;;;;5035294;28;21056;-27
2022/07/05 01:30:15;;;;;;;0.15;0.10;;;23.50;59.00;;;;;;5049905;28;20037;-27
2022/07/05 01:32:40;;;;;;;0.00;0.00;;;23.40;59.50;;;;;;5053916;28;20036;-23
2022/07/05 01:35:07;;;;;;;0.10;0.10;;;23.50;58.80;;;;;;5057405;28;20422;-27
2022/07/05 01:37:33;;;;;;;0.10;0.10;;;23.50;58.70;;;;;;5054174;28;20084;-26
2022/07/05 01:39:59;;;;;;;0.20;0.10;;;23.40;59.00;;;;;;5047324;28;20125;-25
2022/07/05 01:42:25;;;;;;;0.10;0.10;;;23.40;58.90;;;;;;5061332;28;20032;-26
2022/07/05 01:44:50;;;;;;;0.10;0.10;;;23.40;58.80;;;;;;5034007;28;20045;-25
2022/07/05 01:47:16;;;;;;;0.28;0.10;;;23.40;58.90;;;;;;5035943;28;20140;-24
2022/07/05 01:49:43;;;;;;;0.00;0.00;;;23.40;59.00;;;;;;5051578;28;20074;-21
2022/07/05 01:52:11;;;;;;;0.10;0.10;;;23.40;59.00;;;;;;5062886;28;20040;-25
2022/07/05 01:54:36;;;;;;;0.10;0.10;;;23.40;58.90;;;;;;5050297;28;20036;-26
2022/07/05 01:57:04;;;;;;;0.10;0.00;;;23.40;59.00;;;;;;5060315;28;20401;-25
2022/07/05 01:59:29;;;;;;;0.20;0.10;;;23.40;59.00;;;;;;5058625;28;20036;-27
2022/07/05 02:01:55;;;;;;;0.10;0.10;;;23.40;58.90;;;;;;5067620;28;20048;-23
2022/07/05 02:04:20;;;;;;;0.00;0.00;;;23.40;58.90;;;;;;5059279;28;20501;-26
2022/07/05 02:06:46;;;;;;;0.10;0.10;;;23.40;59.00;;;;;;5049445;28;20162;-26
2022/07/05 02:09:11;;;;;;;0.10;0.10;;;23.40;59.00;;;;;;5060142;28;20513;-24
2022/07/05 02:11:37;;;;;;;0.10;0.10;;;23.40;59.00;;;;;;5048394;28;20053;-24
2022/07/05 02:14:03;;;;;;;0.00;0.00;;;23.40;59.00;;;;;;5058364;28;20136;-29
2022/07/05 02:16:29;;;;;;;0.00;0.00;;;23.40;58.90;;;;;;5058326;28;20504;-25
2022/07/05 02:18:54;;;;;;;0.38;0.00;;;23.30;58.90;;;;;;5060353;28;20075;-25
2022/07/05 02:21:20;;;;;;;0.13;0.00;;;23.40;59.00;;;;;;5043936;28;20034;-27
2022/07/05 02:23:45;;;;;;;0.10;0.00;;;23.30;58.90;;;;;;5039193;28;20038;-25
2022/07/05 02:26:11;;;;;;;0.03;0.00;;;23.40;58.90;;;;;;5057410;28;20063;-28
2022/07/05 02:28:37;;;;;;;0.00;0.00;;;23.40;58.90;;;;;;5064477;28;20139;-27
2022/07/05 02:31:02;;;;;;;0.32;0.10;;;23.30;58.90;;;;;;5053625;28;20109;-25
2022/07/05 02:33:28;;;;;;;0.20;0.20;;;23.30;58.80;;;;;;5054068;28;20045;-25
2022/07/05 02:35:54;;;;;;;0.60;0.10;;;23.40;58.90;;;;;;5038543;28;20068;-25
2022/07/05 02:38:19;;;;;;;0.05;0.00;;;23.30;58.90;;;;;;5057529;28;20067;-26
2022/07/05 02:40:45;;;;;;;0.30;0.10;;;23.30;58.90;;;;;;5061450;28;20101;-23
2022/07/05 02:43:10;;;;;;;0.10;0.10;;;23.30;58.90;;;;;;5050027;28;20040;-26
2022/07/05 02:45:36;;;;;;;0.20;0.10;;;23.30;58.90;;;;;;5062462;28;20051;-24
2022/07/05 02:48:01;;;;;;;0.10;0.00;;;23.40;59.00;;;;;;5052172;28;20053;-23
2022/07/05 02:50:27;;;;;;;0.10;0.00;;;23.40;58.90;;;;;;5063685;28;20083;-23
2022/07/05 02:52:53;;;;;;;0.10;0.10;;;23.30;58.90;;;;;;5054225;28;20125;-26
2022/07/05 02:55:18;;;;;;;0.30;0.10;;;23.30;59.00;;;;;;5063318;28;20476;-27
2022/07/05 02:57:44;;;;;;;0.10;0.10;;;23.30;59.00;;;;;;5054173;28;20136;-28
2022/07/05 03:00:10;;;;;;;0.17;0.17;;;23.30;58.90;;;;;;5050424;28;20042;-23
2022/07/05 03:02:36;;;;;;;0.15;0.10;;;23.40;59.00;;;;;;5063082;28;20101;-25
2022/07/05 03:05:01;;;;;;;0.10;0.10;;;23.30;59.00;;;;;;5053301;28;20045;-29
2022/07/05 03:07:27;;;;;;;0.00;0.00;;;23.30;58.90;;;;;;5057503;28;20041;-25
2022/07/05 03:09:52;;;;;;;0.32;0.10;;;23.30;58.90;;;;;;5039263;28;20056;-28
2022/07/05 03:12:18;;;;;;;0.10;0.10;;;23.30;59.50;;;;;;5051961;28;20067;-24
2022/07/05 03:14:44;;;;;;;0.10;0.03;;;23.30;59.60;;;;;;5063017;28;20036;-28
2022/07/05 03:17:09;;;;;;;0.20;0.20;;;23.30;59.00;;;;;;5052997;28;20516;-31
2022/07/05 03:19:35;;;;;;;0.10;0.00;;;23.30;58.90;;;;;;5064667;28;20048;-26
2022/07/05 03:22:00;;;;;;;0.10;0.10;;;23.30;59.00;;;;;;5052556;28;20569;-25
2022/07/05 03:24:26;;;;;;;0.10;0.10;;;23.30;59.10;;;;;;5052431;28;20083;-23
2022/07/05 03:26:51;;;;;;;0.10;0.00;;;23.30;59.00;;;;;;5058150;28;20086;-23
2022/07/05 03:29:17;;;;;;;0.00;0.00;;;23.30;59.00;;;;;;5048939;28;20525;-25
2022/07/05 03:31:43;;;;;;;0.30;0.00;;;23.30;59.00;;;;;;5060357;28;20051;-24
2022/07/05 03:34:08;;;;;;;0.00;0.00;;;23.30;59.00;;;;;;5055915;28;20489;-25
2022/07/05 03:36:34;;;;;;;0.03;0.03;;;23.30;59.00;;;;;;5048444;28;20053;-24
2022/07/05 03:38:59;;;;;;;0.10;0.10;;;23.30;59.10;;;;;;5040589;28;20078;-24
2022/07/05 03:41:25;;;;;;;0.10;0.10;;;23.30;59.00;;;;;;5037338;28;20561;-23
2022/07/05 03:43:51;;;;;;;0.10;0.10;;;23.30;59.00;;;;;;5040842;28;20041;-24
2022/07/05 03:46:16;;;;;;;0.17;0.10;;;23.30;58.90;;;;;;5052617;28;20071;-25
2022/07/05 03:48:42;;;;;;;0.00;0.00;;;23.30;58.90;;;;;;5050272;28;20098;-22
2022/07/05 03:51:07;;;;;;;0.10;0.08;;;23.30;59.00;;;;;;5039906;28;20049;-27
2022/07/05 03:53:33;;;;;;;0.10;0.10;;;23.30;59.00;;;;;;5040331;28;20045;-29
2022/07/05 03:55:58;;;;;;;0.20;0.10;;;23.30;59.00;;;;;;5041599;28;20053;-22
2022/07/05 03:58:24;;;;;;;0.40;0.10;;;23.30;59.10;;;;;;5057440;28;20512;-25
2022/07/05 04:00:49;;;;;;;0.20;0.20;;;23.20;58.90;;;;;;5059627;28;20043;-29
2022/07/05 04:03:15;;;;;;;0.10;0.10;;;23.20;59.00;;;;;;5054626;28;20068;-24
2022/07/05 04:05:41;;;;;;;0.00;0.00;;;23.20;59.00;;;;;;5053578;28;20516;-23
2022/07/05 04:08:07;;;;;;;0.13;0.13;;;23.20;59.00;;;;;;5053292;28;20068;-28
2022/07/05 04:10:32;;;;;;;0.10;0.03;;;23.20;59.00;;;;;;5055986;28;20122;-29
2022/07/05 04:12:58;;;;;;;0.10;0.10;;;23.20;59.00;;;;;;5052759;28;20044;-26
2022/07/05 04:15:23;;;;;;;0.10;0.10;;;23.20;59.00;;;;;;5036512;28;20115;-25
2022/07/05 04:17:53;;;;;;;0.10;0.00;;;23.20;58.90;;;;;;5036112;28;20059;-25
2022/07/05 04:20:21;;;;;;;0.25;0.10;;;23.20;58.90;;;;;;5055339;28;20048;-27
2022/07/05 04:22:46;;;;;;;0.25;0.10;;;23.20;59.10;;;;;;5063777;28;20044;-23
2022/07/05 04:25:18;;;;;;;0.10;0.10;;;23.20;59.00;;;;;;5063772;28;20044;-22
2022/07/05 04:27:47;;;;;;;0.10;0.10;;;23.20;59.20;;;;;;5058752;28;20040;-25
2022/07/05 04:30:13;;;;;;;0.03;0.00;;;23.20;59.10;;;;;;5057608;28;20051;-27
2022/07/05 04:32:39;;;;;;;0.00;0.00;;;23.20;59.10;;;;;;4690688;28;10000465;-27
2022/07/05 04:35:05;;;;;;;0.30;0.10;;;23.10;58.90;;;;;;5046084;28;20345;-26
2022/07/05 04:37:30;;;;;;;0.28;0.20;;;23.00;58.60;;;;;;5051095;28;20048;-25
2022/07/05 04:39:56;;;;;;;0.30;0.10;;;23.00;59.30;;;;;;5031839;28;20399;-23
2022/07/05 04:42:22;;;;;;;0.52;0.20;;;22.70;58.10;;;;;;5044671;28;20047;-24
2022/07/05 04:44:47;;;;;;;0.28;0.20;;;22.30;58.60;;;;;;5032733;28;20049;-27
2022/07/05 04:47:13;;;;;;;0.82;0.30;;;22.10;58.50;;;;;;5051938;28;20044;-27
2022/07/05 04:49:38;;;;;;;0.77;0.40;;;22.00;58.30;;;;;;5035277;28;20796;-23
2022/07/05 04:52:04;;;;;;;0.60;0.30;;;21.80;58.60;;;;;;5036624;28;20089;-31
2022/07/05 04:54:30;;;;;;;1.92;0.30;;;21.70;58.80;;;;;;5052107;28;20043;-27
2022/07/05 04:56:55;;;;;;;0.93;0.40;;;21.70;59.10;;;;;;5045301;28;20421;-26
2022/07/05 04:59:21;;;;;;;1.27;0.50;;;21.70;59.10;;;;;;5045246;28;20048;-26
2022/07/05 05:01:46;;;;;;;1.67;0.50;;;21.50;60.00;;;;;;5054030;28;20126;-26
2022/07/05 05:04:12;;;;;;;1.75;0.40;;;21.50;59.60;;;;;;5051903;28;20145;-24
2022/07/05 05:06:37;;;;;;;0.40;0.25;;;21.40;59.80;;;;;;5044040;28;20079;-26
2022/07/05 05:09:03;;;;;;;1.10;0.35;;;21.40;59.70;;;;;;5049699;28;20131;-25
2022/07/05 05:11:29;;;;;;;0.90;0.30;;;21.30;59.90;;;;;;5027845;28;20052;-27
2022/07/05 05:13:54;;;;;;;1.23;0.82;;;21.20;60.40;;;;;;5045875;28;20211;-26
2022/07/05 05:16:20;;;;;;;0.73;0.45;;;21.20;60.50;;;;;;5044843;28;20203;-26
2022/07/05 05:18:45;;;;;;;1.20;0.52;;;21.10;61.10;;;;;;5032513;28;20064;-25
2022/07/05 05:21:11;;;;;;;0.47;0.40;;;21.00;61.30;;;;;;5044666;28;20513;-25
2022/07/05 05:23:37;;;;;;;1.02;0.50;;;20.90;62.10;;;;;;5046491;28;20045;-26
2022/07/05 05:26:02;;;;;;;0.55;0.30;;;20.70;62.70;;;;;;5049140;28;20053;-27
2022/07/05 05:28:28;;;;;;;1.27;0.52;;;20.70;62.80;;;;;;5041681;28;20048;-28
2022/07/05 05:30:53;;;;;;;0.88;0.55;;;20.60;63.30;;;;;;5060534;28;20036;-26
2022/07/05 05:33:19;;;;;;;0.63;0.40;;;20.60;63.50;;;;;;5047997;28;20053;-25
2022/07/05 05:35:44;;;;;;;0.63;0.43;;;20.70;63.40;;;;;;5033529;28;21034;-29
2022/07/05 05:38:10;;;;;;;2.13;0.88;;;20.60;63.60;;;;;;5033586;28;20114;-29
2022/07/05 05:40:41;;;;;;;0.63;0.40;;;20.50;63.80;;;;;;5037693;28;20037;-25
2022/07/05 05:43:06;;;;;;;1.52;0.60;;;20.50;64.10;;;;;;5046595;28;20481;-23
2022/07/05 05:45:32;;;;;;;2.20;0.60;;;20.50;64.20;;;;;;5036536;28;20103;-27
2022/07/05 05:47:58;;;;;;;0.75;0.40;;;20.40;64.90;;;;;;5036364;28;20056;-29
2022/07/05 05:50:25;;;;;;;0.47;0.38;;;20.50;64.40;;;;;;5060738;28;20037;-26
2022/07/05 05:52:51;;;;;;;0.75;0.35;;;20.40;64.30;;;;;;5066357;28;20049;-28
2022/07/05 05:55:17;;;;;;;2.05;0.50;;;20.40;65.30;;;;;;5066777;28;20040;-23
2022/07/05 05:57:42;;;;;;;1.25;0.65;;;20.30;64.90;;;;;;5066556;28;20508;-22
2022/07/05 06:00:09;;;;;;;2.53;0.50;;;20.40;64.60;;;;;;5063692;28;20025;-25
2022/07/05 06:02:34;;;;;;;1.10;0.50;;;20.30;64.80;;;;;;5054951;28;20045;-25
2022/07/05 06:05:00;;;;;;;0.95;0.47;;;20.30;64.80;;;;;;5061202;28;20559;-24
2022/07/05 06:07:25;;;;;;;0.68;0.20;;;20.20;65.20;;;;;;5046203;28;20048;-24
2022/07/05 06:09:51;;;;;;;0.50;0.40;;;20.50;64.50;;;;;;5050157;28;20032;-22
2022/07/05 06:12:16;;;;;;;0.38;0.20;;;20.70;64.00;;;;;;5055347;28;20120;-23
2022/07/05 06:14:42;;;;;;;0.40;0.20;;;20.80;63.30;;;;;;5043409;28;20037;-25
2022/07/05 06:17:07;;;;;;;0.38;0.25;;;20.90;62.90;;;;;;5042179;28;20045;-27
2022/07/05 06:19:33;;;;;;;0.25;0.20;;;21.00;62.60;;;;;;5044549;28;20611;-28
2022/07/05 06:21:59;;;;;;;1.15;0.40;;;21.00;62.50;;;;;;5042104;28;20259;-27
2022/07/05 06:24:24;;;;;;;0.43;0.22;;;21.10;63.40;;;;;;5057793;28;20040;-25
2022/07/05 06:26:50;;;;;;;1.10;0.25;;;21.10;62.30;;;;;;5061609;28;20378;-25
2022/07/05 06:29:15;;;;;;;0.90;0.45;;;21.20;62.50;;;;;;5052086;28;20060;-29
2022/07/05 06:31:41;;;;;;;0.43;0.30;;;21.20;62.30;;;;;;5049493;28;20568;-26
2022/07/05 06:34:07;;;;;;;0.68;0.20;;;21.20;62.10;;;;;;5048348;28;20055;-23
2022/07/05 06:36:32;;;;;;;0.28;0.28;;;21.20;62.20;;;;;;5056579;28;20107;-26
2022/07/05 06:38:58;;;;;;;0.38;0.30;;;21.30;62.00;;;;;;5057470;28;20033;-22
2022/07/05 06:41:24;;;;;;;0.20;0.20;;;21.30;62.70;;;;;;5068779;28;20127;-26
2022/07/05 06:43:49;;;;;;;0.50;0.35;;;21.40;61.90;;;;;;5066271;28;20446;-25
2022/07/05 06:46:15;;;;;;;0.20;0.20;;;21.40;61.90;;;;;;5066920;28;20048;-25
2022/07/05 06:48:40;;;;;;;0.52;0.20;;;21.40;61.90;;;;;;5067940;28;20040;-26
2022/07/05 06:51:06;;;;;;;0.40;0.28;;;21.40;61.70;;;;;;5064326;28;20044;-24
2022/07/05 06:53:31;;;;;;;0.93;0.40;;;21.40;61.60;;;;;;5067137;28;20036;-26
2022/07/05 06:55:57;;;;;;;0.43;0.20;;;21.40;61.60;;;;;;5065533;28;20045;-22
2022/07/05 06:58:22;;;;;;;0.47;0.20;;;21.40;61.50;;;;;;5066130;28;20086;-25
2022/07/05 07:00:48;;;;;;;0.40;0.40;;;21.50;61.70;;;;;;5066507;28;20128;-27
2022/07/05 07:03:14;;;;;;;0.38;0.20;;;21.50;61.70;;;;;;5061166;28;20056;-26
2022/07/05 07:05:39;;;;;;;0.70;0.35;;;21.50;61.70;;;;;;5058799;28;20430;-30
2022/07/05 07:10:49;;;;;;;0.32;0.28;;;21.60;61.70;;;;;;5057594;28;20052;-25
2022/07/05 07:13:14;;;;;;;0.25;0.20;;;21.60;61.60;;;;;;5063042;28;20053;-29
2022/07/05 07:15:40;;;;;;;0.25;0.10;;;21.60;61.50;;;;;;5055251;28;20041;-27
2022/07/05 07:18:06;;;;;;;0.35;0.20;;;21.60;61.50;;;;;;5056878;28;20071;-23
2022/07/05 07:20:32;;;;;;;0.10;0.10;;;21.70;61.50;;;;;;5057108;28;20052;-23
2022/07/05 07:22:57;;;;;;;0.40;0.20;;;21.70;61.20;;;;;;5042679;28;20075;-27
2022/07/05 07:25:23;;;;;;;0.30;0.15;;;21.60;61.30;;;;;;5066152;28;20045;-27
2022/07/05 07:27:50;;;;;;;0.20;0.20;;;21.60;61.50;;;;;;5068257;28;20097;-26
2022/07/05 07:30:16;;;;;;;0.10;0.08;;;21.60;61.40;;;;;;5065401;28;20091;-27
2022/07/05 07:32:42;;;;;;;1.08;0.30;;;21.70;61.70;;;;;;5053383;28;20037;-25
2022/07/05 07:35:08;;;;;;;0.10;0.10;;;21.70;61.70;;;;;;5056284;28;20052;-25
2022/07/05 07:37:34;;;;;;;0.75;0.25;;;21.70;61.00;;;;;;5057525;28;20185;-23
2022/07/05 07:40:01;;;;;;;0.10;0.10;;;21.70;62.30;;;;;;5047157;28;20123;-24
2022/07/05 07:42:27;;;;;;;0.85;0.35;;;21.80;61.70;;;;;;5058525;28;20049;-23
2022/07/05 07:44:53;;;;;;;0.25;0.15;;;21.80;61.20;;;;;;5049452;28;20056;-22
2022/07/05 07:47:18;;;;;;;0.82;0.10;;;21.90;61.80;;;;;;5041097;28;20049;-25
2022/07/05 07:49:44;;;;;;;0.30;0.17;;;21.90;61.60;;;;;;5057690;28;20032;-23
2022/07/05 07:52:09;;;;;;;0.20;0.13;;;21.90;61.30;;;;;;5058553;28;20129;-24
2022/07/05 07:54:35;;;;;;;0.50;0.32;;;22.00;62.10;;;;;;5052614;28;20048;-27
2022/07/05 07:57:01;;;;;;;0.20;0.20;;;22.00;61.10;;;;;;5058644;28;20523;-26
2022/07/05 07:59:27;;;;;;;0.28;0.25;;;22.00;60.90;;;;;;5053904;28;20119;-26
2022/07/05 08:01:53;;;;;;;0.20;0.20;;;22.00;60.90;;;;;;5062014;28;20044;-22
2022/07/05 08:04:18;;;;;;;0.50;0.15;;;22.00;60.90;;;;;;5054979;28;20041;-27
2022/07/05 08:06:44;;;;;;;0.10;0.10;;;22.00;60.80;;;;;;5058578;28;20528;-24
2022/07/05 08:09:09;;;;;;;0.98;0.20;;;22.10;60.80;;;;;;5053120;28;20488;-28
2022/07/05 08:11:35;;;;;;;0.10;0.10;;;22.10;61.50;;;;;;5057258;28;20517;-27
2022/07/05 08:14:00;;;;;;;0.13;0.10;;;22.00;60.80;;;;;;5058238;28;20044;-24
2022/07/05 08:16:26;;;;;;;0.10;0.10;;;22.00;60.60;;;;;;5051943;28;20414;-25
2022/07/05 08:21:38;;;;;;;0.28;0.10;;;22.00;60.50;;;;;;5054106;28;20828;-26
2022/07/05 08:24:10;;;;;;;0.20;0.10;;;22.10;60.70;;;;;;5039313;28;20037;-27
2022/07/05 08:26:36;;;;;;;0.10;0.10;;;22.00;60.60;;;;;;5055338;28;20430;-23
2022/07/05 08:29:03;;;;;;;0.20;0.20;;;22.10;60.50;;;;;;5052346;28;20045;-27
2022/07/05 08:31:31;;;;;;;0.10;0.10;;;22.10;60.40;;;;;;5057008;28;20040;-24
2022/07/05 08:33:57;;;;;;;0.55;0.32;;;22.10;60.30;;;;;;5052218;28;20044;-25
2022/07/05 08:36:23;;;;;;;0.20;0.10;;;22.10;60.20;;;;;;5058961;28;20409;-25
2022/07/05 08:38:48;;;;;;;0.10;0.10;;;22.10;60.10;;;;;;5052196;28;20045;-26
2022/07/05 08:41:16;;;;;;;0.30;0.10;;;22.10;60.10;;;;;;5052131;28;20056;-30
2022/07/05 08:43:42;;;;;;;0.10;0.10;;;22.10;60.20;;;;;;5051294;28;20037;-28
2022/07/05 08:46:09;;;;;;;0.15;0.15;;;22.10;60.20;;;;;;5050248;28;20046;-28
2022/07/05 08:48:41;;;;;;;0.20;0.20;;;22.10;60.10;;;;;;5066260;28;20040;-25
2022/07/05 08:51:11;;;;;;;0.30;0.30;;;22.10;60.00;;;;;;5058370;28;20420;-24
2022/07/05 08:53:37;;;;;;;0.50;0.28;;;22.20;60.00;;;;;;5052419;28;20049;-29
2022/07/05 08:56:02;;;;;;;0.30;0.20;;;22.20;59.90;;;;;;5059050;28;20040;-23
2022/07/05 08:58:28;;;;;;;0.10;0.00;;;22.10;59.70;;;;;;5040957;28;20052;-27
2022/07/05 09:00:53;;;;;;;0.22;0.10;;;22.20;59.60;;;;;;5056585;28;20120;-28
2022/07/05 09:03:19;;;;;;;0.43;0.10;;;22.20;59.60;;;;;;5048097;28;20041;-24
2022/07/05 09:05:45;;;;;;;0.10;0.08;;;22.20;60.40;;;;;;5073427;28;20389;-26
2022/07/05 09:08:14;;;;;;;0.10;0.10;;;22.20;59.70;;;;;;5054461;28;20049;-27
2022/07/05 09:10:39;;;;;;;0.10;0.10;;;22.20;59.70;;;;;;5036818;28;20411;-25
2022/07/05 09:13:05;;;;;;;0.20;0.20;;;22.20;59.60;;;;;;5059694;28;20037;-24
2022/07/05 09:15:30;;;;;;;0.20;0.10;;;22.20;59.60;;;;;;5052571;28;20057;-25
2022/07/05 09:17:56;;;;;;;0.10;0.00;;;22.20;59.40;;;;;;5056019;28;20465;-24
2022/07/05 09:20:21;;;;;;;0.43;0.25;;;22.20;59.20;;;;;;5047903;28;20052;-25
2022/07/05 09:22:49;;;;;;;0.10;0.10;;;22.30;59.40;;;;;;5056123;28;20116;-25
2022/07/05 09:25:19;;;;;;;0.10;0.10;;;22.30;59.30;;;;;;5041481;28;20128;-23
2022/07/05 09:27:52;;;;;;;0.25;0.10;;;22.30;59.30;;;;;;5038385;28;20103;-25
2022/07/05 09:30:34;;;;;;;0.10;0.10;;;22.30;59.40;;;;;;5035031;28;20044;-28
2022/07/05 09:33:03;;;;;;;0.10;0.10;;;22.30;59.30;;;;;;5059500;28;20040;-28
2022/07/05 09:35:30;;;;;;;0.10;0.10;;;22.30;59.30;;;;;;5043045;28;20063;-26
2022/07/05 09:37:55;;;;;;;0.10;0.10;;;22.30;59.10;;;;;;5051163;28;20401;-25
2022/07/05 09:40:21;;;;;;;0.10;0.10;;;22.30;59.20;;;;;;5055032;28;20048;-30
2022/07/05 09:42:47;;;;;;;0.20;0.10;;;22.30;59.10;;;;;;5051640;28;20041;-25
2022/07/05 09:45:13;;;;;;;0.13;0.10;;;22.30;59.00;;;;;;5056025;28;20033;-25
2022/07/05 09:47:38;;;;;;;0.30;0.30;;;22.30;59.00;;;;;;5055840;28;20183;-28
2022/07/05 09:50:05;;;;;;;0.15;0.10;;;22.30;59.10;;;;;;5056961;28;20131;-21
2022/07/05 09:52:38;;;;;;;0.50;0.20;;;22.30;59.10;;;;;;5055463;28;20045;-23
2022/07/05 09:55:05;;;;;;;0.17;0.10;;;22.30;59.10;;;;;;5063162;28;20040;-23
2022/07/05 09:57:32;;;;;;;0.17;0.15;;;22.40;59.10;;;;;;5064025;28;20502;-24
2022/07/05 10:00:08;;;;;;;0.25;0.10;;;22.30;59.10;;;;;;5064362;28;20044;-27
2022/07/05 10:02:44;;;;;;;0.15;0.10;;;22.40;58.90;;;;;;5060603;28;20125;-27
2022/07/05 10:05:19;;;;;;;0.10;0.10;;;22.40;58.90;;;;;;5049039;28;20055;-21
2022/07/05 10:07:48;;;;;;;0.10;0.03;;;22.40;58.90;;;;;;5043713;28;20494;-24
2022/07/05 10:10:20;;;;;;;0.52;0.08;;;22.40;59.00;;;;;;5061253;28;20047;-29
2022/07/05 10:12:51;;;;;;;0.10;0.10;;;22.40;58.90;;;;;;5055706;28;20493;-25
2022/07/05 10:15:22;;;;;;;0.10;0.08;;;22.40;58.80;;;;;;5055885;28;20405;-29
2022/07/05 10:17:58;;;;;;;0.10;0.10;;;22.40;58.90;;;;;;5060921;28;20095;-25
2022/07/05 10:20:36;;;;;;;0.10;0.10;;;22.40;58.90;;;;;;5057962;28;20051;-23
2022/07/05 10:23:06;;;;;;;0.30;0.10;;;22.40;59.00;;;;;;5049704;28;20125;-26
2022/07/05 10:25:32;;;;;;;0.10;0.10;;;22.40;58.90;;;;;;5057885;28;20102;-24
2022/07/05 10:27:58;;;;;;;0.10;0.10;;;22.40;58.90;;;;;;5054482;28;20470;-26
2022/07/05 10:30:24;;;;;;;0.15;0.10;;;22.40;58.90;;;;;;5060359;28;20032;-29
2022/07/05 10:32:49;;;;;;;0.13;0.10;;;22.40;58.90;;;;;;4698872;28;10000183;-23
2022/07/05 10:35:16;;;;;;;0.15;0.10;;;22.40;58.60;;;;;;5054942;28;20058;-24
2022/07/05 10:37:42;;;;;;;0.38;0.20;;;22.50;57.90;;;;;;5050195;28;20047;-23
2022/07/05 10:40:08;;;;;;;0.10;0.00;;;22.50;57.70;;;;;;5043655;28;20041;-24
2022/07/05 10:42:47;;;;;;;0.20;0.10;;;22.50;57.70;;;;;;5054271;28;20503;-27
2022/07/05 10:45:32;;;;;;;0.10;0.10;;;22.50;57.90;;;;;;5020633;28;20141;-24
2022/07/05 10:48:16;;;;;;;0.20;0.10;;;22.50;57.90;;;;;;5054597;28;20059;-26
2022/07/05 10:50:48;;;;;;;0.10;0.10;;;22.60;58.00;;;;;;4691346;28;9999828;-27
2022/07/05 10:53:14;;;;;;;0.10;0.10;;;22.60;58.00;;;;;;5045979;28;20046;-29
2022/07/05 10:55:50;;;;;;;0.00;0.00;;;22.60;58.70;;;;;;5054244;28;20041;-29
2022/07/05 10:58:20;;;;;;;0.10;0.10;;;22.60;58.30;;;;;;5053637;28;20072;-28
2022/07/05 11:00:46;;;;;;;0.10;0.10;;;22.60;58.30;;;;;;5066166;28;20086;-28
2022/07/05 11:03:34;;;;;;;0.00;0.00;;;22.50;58.40;;;;;;5061948;28;20048;-27
2022/07/05 11:06:00;;;;;;;0.20;0.20;;;22.50;58.30;;;;;;5044603;28;20046;-26
2022/07/05 11:08:26;;;;;;;0.30;0.08;;;22.50;58.40;;;;;;5057273;28;20509;-32
2022/07/05 11:11:27;;;;;;;0.40;0.00;;;22.60;58.40;;;;;;5039447;28;20106;-30
2022/07/05 11:13:54;;;;;;;0.10;0.10;;;22.50;58.50;;;;;;5040598;28;20045;-25
2022/07/05 11:16:20;;;;;;;0.22;0.20;;;22.50;58.50;;;;;;5048433;28;20383;-26
2022/07/05 11:18:46;;;;;;;0.00;0.00;;;22.50;58.50;;;;;;4697503;28;9999801;-29
2022/07/05 11:21:20;;;;;;;0.10;0.10;;;22.60;58.60;;;;;;5048453;28;20462;-31
2022/07/05 11:23:46;;;;;;;0.30;0.10;;;22.60;58.60;;;;;;5055773;28;20037;-30
2022/07/05 11:26:13;;;;;;;0.28;0.13;;;22.60;58.60;;;;;;5043299;28;20449;-25
2022/07/05 11:28:46;;;;;;;0.08;0.08;;;22.60;58.70;;;;;;5050912;28;20080;-27
2022/07/05 11:31:11;;;;;;;0.00;0.00;;;22.60;58.70;;;;;;5041789;28;20044;-28
2022/07/05 11:33:43;;;;;;;0.00;0.00;;;22.60;58.70;;;;;;5052732;28;20044;-26
2022/07/05 11:36:25;;;;;;;0.13;0.13;;;22.60;59.40;;;;;;5059782;28;20127;-28
2022/07/05 11:39:20;;;;;;;0.10;0.00;;;22.60;58.70;;;;;;5064342;28;20539;-26
2022/07/05 11:41:49;;;;;;;0.10;0.10;;;22.60;58.80;;;;;;5042360;28;20114;-25
2022/07/05 11:44:15;;;;;;;0.22;0.00;;;22.60;58.80;;;;;;5053865;28;20098;-30
2022/07/05 11:46:42;;;;;;;0.35;0.10;;;22.60;58.80;;;;;;5053060;28;20397;-30
2022/07/05 11:49:07;;;;;;;0.10;0.03;;;22.60;58.80;;;;;;5060693;28;20075;-26
2022/07/05 11:51:33;;;;;;;0.10;0.10;;;22.60;59.00;;;;;;5055069;28;20079;-27
2022/07/05 11:53:58;;;;;;;0.00;0.00;;;22.60;59.00;;;;;;5056632;28;20032;-25
2022/07/05 11:56:24;;;;;;;0.10;0.10;;;22.60;59.00;;;;;;5041182;28;20040;-29
2022/07/05 11:58:50;;;;;;;0.15;0.10;;;22.70;59.10;;;;;;5038852;28;20037;-31
2022/07/05 12:01:15;;;;;;;0.10;0.03;;;22.60;59.10;;;;;;5063697;28;20040;-28
2022/07/05 12:03:41;;;;;;;0.00;0.00;;;22.60;59.10;;;;;;5058301;28;20043;-27
2022/07/05 12:06:13;;;;;;;0.10;0.00;;;22.60;59.10;;;;;;5053862;28;20805;-27
2022/07/05 12:08:39;;;;;;;0.00;0.00;;;22.70;59.10;;;;;;5057558;28;20060;-28
2022/07/05 12:13:49;;;;;;;0.10;0.10;;;22.70;59.20;;;;;;5061529;28;20099;-25
2022/07/05 12:16:16;;;;;;;0.10;0.00;;;22.70;59.20;;;;;;5054430;28;20072;-28
2022/07/05 12:18:52;;;;;;;0.30;0.10;;;22.70;59.20;;;;;;5058929;28;20519;-30
2022/07/05 12:21:20;;;;;;;0.10;0.00;;;22.60;59.10;;;;;;5056115;28;20489;-31
2022/07/05 12:23:46;;;;;;;0.65;0.17;;;22.70;59.30;;;;;;5052194;28;20149;-28
2022/07/05 12:26:12;;;;;;;0.00;0.00;;;22.70;59.30;;;;;;5059544;28;20532;-23
2022/07/05 12:28:38;;;;;;;0.10;0.00;;;22.70;59.30;;;;;;5062138;28;20095;-26
2022/07/05 12:31:19;;;;;;;0.28;0.00;;;22.70;59.30;;;;;;5064448;28;20060;-28
2022/07/05 12:33:45;;;;;;;0.10;0.08;;;22.80;59.20;;;;;;5064592;28;20040;-28
2022/07/05 12:36:15;;;;;;;0.10;0.10;;;22.70;59.20;;;;;;5065518;28;20057;-29
2022/07/05 12:38:41;;;;;;;0.00;0.00;;;22.80;59.20;;;;;;5055404;28;20060;-28
2022/07/05 12:41:07;;;;;;;0.10;0.10;;;22.80;59.20;;;;;;5063000;28;20506;-29
2022/07/05 12:43:33;;;;;;;0.10;0.05;;;22.80;59.20;;;;;;5053007;28;20095;-27
2022/07/05 12:45:58;;;;;;;0.10;0.10;;;22.80;59.10;;;;;;5048904;28;20079;-31
2022/07/05 12:48:32;;;;;;;0.60;0.10;;;22.80;59.10;;;;;;5054727;28;20041;-28
2022/07/05 12:50:58;;;;;;;0.00;0.00;;;22.80;59.10;;;;;;5053922;28;20041;-28
2022/07/05 12:58:55;;;;;;;0.10;0.00;;;22.80;59.80;;;;;;5051890;28;20052;-27